Canaan, Vermont
Current Conditions -  °F | °C
As of 12:00 AM on Thursday 23 Oct 2014 (Local Time) from CYSC Reporting Station
Overcast Overcast  
Wind Chill: 42°   Ceiling: 3200
Heat Index: 46°   Visibility: NA
Dew Point: 36°   Wind: 9mph
Humidity: 66%   Direction: 30°NNE
Pressure: 30.13"   Gusts: 20mph
Location:  45°N, 71.54°W
Report Text: CYSC 230400Z AUTO 03008G17KT 360V060 OVC032 08/02 A3013 RMK WX MISG VIS MISG PCPN MISG SLP210
Loading
Personal Weather Stations






























Interactive Weather Map
Tropical Storm Tracking
New forecast layout! Learn more

10-Day Weather Forecast

Advertisements
Track Severe Weather on mobile